VOE7CB LFKB-LFQQ
Flight info
| Callsign | VOE7CB |
|---|---|
| Flight time | 1h 40m |
| Altitude | 36000 |
| Route | MEGER Z911 OLETI M858 UNITA DCT IXITO DCT PIMOT DCT AOSTA DCT ORSUD DCT MOLUS DCT UNKIR UM729 DJL UH37 LAULY UM733 KOPOR UN874 EGOZE N874 SULEX |
| Aircraft | A320/M-SDE3FGHIRWY/LB1 |
Departure
| Time | 2026-04-29 14:56 |
|---|---|
| Airport | Bastia-Poretta International airport (LFKB) |
Arrival
| Time | 2026-04-29 16:36 |
|---|---|
| Airport | Lille Airport (LFQQ) |
| Time | Latitude | Longitude | Altitude | Speed | Heading |
|---|---|---|---|---|---|
| 2026-04-29 14:24 | 42.54829 | 9.48162 | 34 ft | 0 kts | 252° |
| 2026-04-29 14:49 | 42.54831 | 9.48169 | 35 ft | 2 kts | 252° |
| 2026-04-29 14:49 | 42.54836 | 9.48191 | 34 ft | 2 kts | 252° |
| 2026-04-29 14:49 | 42.54842 | 9.48213 | 33 ft | 2 kts | 252° |
| 2026-04-29 14:50 | 42.54850 | 9.48234 | 34 ft | 3 kts | 217° |
| 2026-04-29 14:50 | 42.54866 | 9.48245 | 32 ft | 3 kts | 180° |
| 2026-04-29 14:50 | 42.54878 | 9.48244 | 34 ft | 0 kts | 160° |
| 2026-04-29 14:52 | 42.54876 | 9.48245 | 34 ft | 1 kts | 160° |
| 2026-04-29 14:52 | 42.54848 | 9.48258 | 34 ft | 5 kts | 160° |
| 2026-04-29 14:53 | 42.54823 | 9.48270 | 35 ft | 3 kts | 160° |
| 2026-04-29 14:53 | 42.54808 | 9.48278 | 35 ft | 2 kts | 160° |
| 2026-04-29 14:53 | 42.54760 | 9.48301 | 35 ft | 10 kts | 160° |
| 2026-04-29 14:53 | 42.54691 | 9.48335 | 35 ft | 11 kts | 160° |
| 2026-04-29 14:54 | 42.54610 | 9.48371 | 35 ft | 13 kts | 162° |
| 2026-04-29 14:54 | 42.54520 | 9.48410 | 35 ft | 14 kts | 162° |
| 2026-04-29 14:54 | 42.54417 | 9.48418 | 35 ft | 15 kts | 176° |
| 2026-04-29 14:54 | 42.54309 | 9.48452 | 34 ft | 17 kts | 163° |
| 2026-04-29 14:55 | 42.54197 | 9.48503 | 35 ft | 18 kts | 160° |
| 2026-04-29 14:55 | 42.54127 | 9.48631 | 35 ft | 18 kts | 95° |
| 2026-04-29 14:55 | 42.54182 | 9.48780 | 35 ft | 19 kts | 35° |
| 2026-04-29 14:55 | 42.54349 | 9.48754 | 32 ft | 47 kts | 342° |
| 2026-04-29 14:56 | 42.54912 | 9.48524 | 35 ft | 119 kts | 343° |
| 2026-04-29 14:56 | 42.55896 | 9.48104 | 57 ft | 171 kts | 341° |
| 2026-04-29 14:56 | 42.57041 | 9.47633 | 682 ft | 174 kts | 347° |
| 2026-04-29 14:56 | 42.58222 | 9.47337 | 1435 ft | 176 kts | 358° |
| 2026-04-29 14:57 | 42.59466 | 9.47261 | 2064 ft | 187 kts | 2° |
| 2026-04-29 14:57 | 42.60816 | 9.47373 | 2453 ft | 202 kts | 8° |
| 2026-04-29 14:57 | 42.62246 | 9.47770 | 2812 ft | 219 kts | 18° |
| 2026-04-29 14:57 | 42.63739 | 9.48554 | 3109 ft | 242 kts | 23° |
| 2026-04-29 14:58 | 42.65379 | 9.49448 | 3479 ft | 265 kts | 21° |
| 2026-04-29 14:58 | 42.67134 | 9.50361 | 4178 ft | 273 kts | 21° |
| 2026-04-29 14:58 | 42.68925 | 9.51276 | 5018 ft | 276 kts | 20° |
| 2026-04-29 14:58 | 42.70732 | 9.52198 | 5873 ft | 279 kts | 20° |
| 2026-04-29 14:59 | 42.72576 | 9.53041 | 6700 ft | 281 kts | 14° |
| 2026-04-29 14:59 | 42.74452 | 9.53726 | 7472 ft | 285 kts | 13° |
| 2026-04-29 14:59 | 42.76376 | 9.54428 | 8240 ft | 288 kts | 13° |
| 2026-04-29 14:59 | 42.78328 | 9.55142 | 9006 ft | 292 kts | 13° |
| 2026-04-29 15:00 | 42.80303 | 9.55868 | 9796 ft | 296 kts | 13° |
| 2026-04-29 15:00 | 42.82308 | 9.56609 | 10365 ft | 306 kts | 13° |
| 2026-04-29 15:00 | 42.84446 | 9.57396 | 10553 ft | 330 kts | 13° |
| 2026-04-29 15:00 | 42.86734 | 9.58241 | 10787 ft | 349 kts | 13° |
| 2026-04-29 15:01 | 42.89102 | 9.59118 | 11365 ft | 356 kts | 13° |
| 2026-04-29 15:01 | 42.91501 | 9.60008 | 12052 ft | 359 kts | 13° |
| 2026-04-29 15:01 | 42.93894 | 9.60889 | 12735 ft | 362 kts | 12° |
| 2026-04-29 15:01 | 42.96389 | 9.61335 | 13402 ft | 363 kts | 358° |
| 2026-04-29 15:02 | 42.98892 | 9.60974 | 13887 ft | 363 kts | 345° |
| 2026-04-29 15:02 | 43.01245 | 9.59807 | 13996 ft | 358 kts | 330° |
| 2026-04-29 15:02 | 43.03294 | 9.57911 | 14009 ft | 355 kts | 317° |
| 2026-04-29 15:02 | 43.05063 | 9.55559 | 14006 ft | 354 kts | 313° |
| 2026-04-29 15:03 | 43.06813 | 9.53190 | 14007 ft | 354 kts | 314° |
| 2026-04-29 15:03 | 43.08569 | 9.50826 | 14006 ft | 354 kts | 314° |
| 2026-04-29 15:03 | 43.10330 | 9.48464 | 14001 ft | 354 kts | 314° |
| 2026-04-29 15:03 | 43.12088 | 9.46103 | 14005 ft | 354 kts | 314° |
| 2026-04-29 15:04 | 43.13822 | 9.43770 | 14003 ft | 354 kts | 314° |
| 2026-04-29 15:04 | 43.15579 | 9.41405 | 14005 ft | 354 kts | 314° |
| 2026-04-29 15:04 | 43.17330 | 9.39040 | 14007 ft | 354 kts | 314° |
| 2026-04-29 15:04 | 43.19084 | 9.36673 | 14006 ft | 354 kts | 314° |
| 2026-04-29 15:05 | 43.20838 | 9.34304 | 14004 ft | 354 kts | 314° |
| 2026-04-29 15:05 | 43.22589 | 9.31941 | 14003 ft | 354 kts | 314° |
| 2026-04-29 15:05 | 43.24345 | 9.29572 | 14001 ft | 354 kts | 314° |
| 2026-04-29 15:05 | 43.26097 | 9.27203 | 14004 ft | 354 kts | 314° |
| 2026-04-29 15:06 | 43.27824 | 9.24855 | 14001 ft | 354 kts | 314° |
| 2026-04-29 15:06 | 43.29571 | 9.22477 | 14005 ft | 354 kts | 314° |
| 2026-04-29 15:06 | 43.31334 | 9.20120 | 14004 ft | 354 kts | 317° |
| 2026-04-29 15:06 | 43.33343 | 9.18152 | 14005 ft | 356 kts | 329° |
| 2026-04-29 15:07 | 43.35637 | 9.16788 | 14313 ft | 363 kts | 341° |
| 2026-04-29 15:07 | 43.38092 | 9.15915 | 14985 ft | 365 kts | 344° |
| 2026-04-29 15:07 | 43.40562 | 9.15057 | 15616 ft | 367 kts | 343° |
| 2026-04-29 15:07 | 43.43045 | 9.14183 | 16222 ft | 370 kts | 343° |
| 2026-04-29 15:08 | 43.45545 | 9.13300 | 16836 ft | 372 kts | 343° |
| 2026-04-29 15:08 | 43.48061 | 9.12412 | 17435 ft | 375 kts | 343° |
| 2026-04-29 15:08 | 43.50560 | 9.11533 | 18034 ft | 377 kts | 343° |
| 2026-04-29 15:08 | 43.53111 | 9.10639 | 18588 ft | 380 kts | 343° |
| 2026-04-29 15:09 | 43.55680 | 9.09742 | 19101 ft | 382 kts | 343° |
| 2026-04-29 15:09 | 43.58266 | 9.08839 | 19610 ft | 385 kts | 344° |
| 2026-04-29 15:09 | 43.60872 | 9.07927 | 20107 ft | 388 kts | 344° |
| 2026-04-29 15:09 | 43.63504 | 9.07006 | 20604 ft | 391 kts | 344° |
| 2026-04-29 15:10 | 43.66150 | 9.06080 | 21099 ft | 394 kts | 343° |
| 2026-04-29 15:10 | 43.68820 | 9.05141 | 21583 ft | 397 kts | 343° |
| 2026-04-29 15:10 | 43.71469 | 9.04210 | 22059 ft | 400 kts | 343° |
| 2026-04-29 15:10 | 43.74178 | 9.03261 | 22523 ft | 403 kts | 344° |
| 2026-04-29 15:11 | 43.76900 | 9.02307 | 22974 ft | 405 kts | 343° |
| 2026-04-29 15:11 | 43.79660 | 9.01419 | 23428 ft | 409 kts | 349° |
| 2026-04-29 15:11 | 43.82511 | 9.01101 | 23805 ft | 414 kts | 359° |
| 2026-04-29 15:11 | 43.85402 | 9.01390 | 24166 ft | 418 kts | 3° |
| 2026-04-29 15:12 | 43.88306 | 9.01751 | 24536 ft | 419 kts | 1° |
| 2026-04-29 15:12 | 43.90235 | 9.01766 | 24769 ft | 419 kts | 354° |
| 2026-04-29 15:12 | 43.94049 | 9.00791 | 25231 ft | 417 kts | 340° |
| 2026-04-29 15:12 | 43.96691 | 8.99263 | 25564 ft | 417 kts | 330° |
| 2026-04-29 15:13 | 43.99119 | 8.97071 | 25904 ft | 417 kts | 320° |
| 2026-04-29 15:13 | 44.01351 | 8.94485 | 26244 ft | 419 kts | 319° |
| 2026-04-29 15:13 | 44.03589 | 8.91881 | 26573 ft | 420 kts | 319° |
| 2026-04-29 15:13 | 44.05835 | 8.89271 | 26893 ft | 422 kts | 319° |
| 2026-04-29 15:14 | 44.08092 | 8.86641 | 27220 ft | 424 kts | 319° |
| 2026-04-29 15:14 | 44.10359 | 8.83999 | 27540 ft | 426 kts | 319° |
| 2026-04-29 15:14 | 44.12641 | 8.81364 | 27848 ft | 428 kts | 321° |
| 2026-04-29 15:14 | 44.15132 | 8.79075 | 28143 ft | 431 kts | 330° |
| 2026-04-29 15:15 | 44.17763 | 8.77055 | 28437 ft | 433 kts | 330° |
| 2026-04-29 15:15 | 44.20404 | 8.75026 | 28713 ft | 434 kts | 330° |
| 2026-04-29 15:15 | 44.23015 | 8.73016 | 28984 ft | 436 kts | 330° |
| 2026-04-29 15:15 | 44.25670 | 8.70966 | 29255 ft | 437 kts | 330° |
| 2026-04-29 15:16 | 44.28335 | 8.68900 | 29516 ft | 439 kts | 330° |
| 2026-04-29 15:16 | 44.31001 | 8.66830 | 29768 ft | 440 kts | 330° |
| 2026-04-29 15:16 | 44.33684 | 8.64749 | 30012 ft | 441 kts | 329° |
| 2026-04-29 15:16 | 44.36372 | 8.62661 | 30228 ft | 442 kts | 329° |
| 2026-04-29 15:17 | 44.39055 | 8.60574 | 30494 ft | 441 kts | 329° |
| 2026-04-29 15:17 | 44.41736 | 8.58488 | 30777 ft | 440 kts | 329° |
| 2026-04-29 15:17 | 44.44410 | 8.56405 | 31073 ft | 439 kts | 329° |
| 2026-04-29 15:17 | 44.46172 | 8.55031 | 31273 ft | 438 kts | 329° |
| 2026-04-29 15:18 | 44.49687 | 8.52287 | 31674 ft | 436 kts | 329° |
| 2026-04-29 15:18 | 44.52336 | 8.50217 | 31972 ft | 435 kts | 329° |
| 2026-04-29 15:18 | 44.54975 | 8.48156 | 32271 ft | 434 kts | 329° |
| 2026-04-29 15:18 | 44.57604 | 8.46101 | 32567 ft | 433 kts | 329° |
| 2026-04-29 15:19 | 44.60229 | 8.44045 | 32872 ft | 432 kts | 329° |
| 2026-04-29 15:19 | 44.62849 | 8.41992 | 33156 ft | 430 kts | 329° |
| 2026-04-29 15:19 | 44.65459 | 8.39942 | 33445 ft | 429 kts | 329° |
| 2026-04-29 15:19 | 44.68061 | 8.37893 | 33734 ft | 428 kts | 328° |
| 2026-04-29 15:20 | 44.70621 | 8.35874 | 34020 ft | 427 kts | 329° |
| 2026-04-29 15:20 | 44.73205 | 8.33835 | 34276 ft | 426 kts | 328° |
| 2026-04-29 15:20 | 44.75790 | 8.31794 | 34520 ft | 425 kts | 328° |
| 2026-04-29 15:20 | 44.78353 | 8.29771 | 34754 ft | 425 kts | 328° |
| 2026-04-29 15:21 | 44.80934 | 8.27735 | 34972 ft | 424 kts | 328° |
| 2026-04-29 15:21 | 44.83507 | 8.25702 | 35192 ft | 424 kts | 328° |
| 2026-04-29 15:21 | 44.86072 | 8.23669 | 35404 ft | 423 kts | 328° |
| 2026-04-29 15:21 | 44.88637 | 8.21633 | 35614 ft | 423 kts | 328° |
| 2026-04-29 15:22 | 44.91195 | 8.19599 | 35815 ft | 422 kts | 328° |
| 2026-04-29 15:22 | 44.93754 | 8.17562 | 36002 ft | 422 kts | 328° |
| 2026-04-29 15:22 | 44.96304 | 8.15532 | 36063 ft | 422 kts | 328° |
| 2026-04-29 15:23 | 45.01379 | 8.11494 | 36077 ft | 421 kts | 328° |
| 2026-04-29 15:23 | 45.06481 | 8.07424 | 36079 ft | 421 kts | 328° |
| 2026-04-29 15:24 | 45.11577 | 8.03351 | 36086 ft | 421 kts | 328° |
| 2026-04-29 15:24 | 45.16669 | 7.99266 | 36087 ft | 421 kts | 328° |
| 2026-04-29 15:25 | 45.20899 | 7.95863 | 36085 ft | 421 kts | 328° |
| 2026-04-29 15:25 | 45.26815 | 7.91107 | 36094 ft | 421 kts | 328° |
| 2026-04-29 15:26 | 45.31899 | 7.87007 | 36097 ft | 420 kts | 328° |
| 2026-04-29 15:26 | 45.36983 | 7.82901 | 36101 ft | 420 kts | 328° |
| 2026-04-29 15:27 | 45.41200 | 7.79492 | 36101 ft | 420 kts | 328° |
| 2026-04-29 15:27 | 45.47095 | 7.74709 | 36111 ft | 420 kts | 327° |
| 2026-04-29 15:28 | 45.51922 | 7.70115 | 36122 ft | 415 kts | 316° |
| 2026-04-29 15:28 | 45.56223 | 7.64611 | 36112 ft | 415 kts | 316° |
| 2026-04-29 15:29 | 45.59801 | 7.60044 | 36096 ft | 415 kts | 316° |
| 2026-04-29 15:30 | 45.68378 | 7.49084 | 36074 ft | 415 kts | 316° |
| 2026-04-29 15:30 | 45.72674 | 7.43578 | 36070 ft | 414 kts | 316° |
| 2026-04-29 15:31 | 45.76955 | 7.38064 | 36068 ft | 414 kts | 316° |
| 2026-04-29 15:31 | 45.82146 | 7.32030 | 36067 ft | 415 kts | 322° |
| 2026-04-29 15:32 | 45.86092 | 7.28029 | 36075 ft | 414 kts | 322° |
| 2026-04-29 15:32 | 45.90768 | 7.23276 | 36091 ft | 415 kts | 322° |
| 2026-04-29 15:33 | 45.95471 | 7.18483 | 36096 ft | 414 kts | 322° |
| 2026-04-29 15:33 | 46.00163 | 7.13693 | 36097 ft | 414 kts | 322° |
| 2026-04-29 15:34 | 46.04855 | 7.08878 | 36084 ft | 414 kts | 322° |
| 2026-04-29 15:34 | 46.09514 | 7.04090 | 36076 ft | 414 kts | 322° |
| 2026-04-29 15:35 | 46.14207 | 6.99268 | 36072 ft | 414 kts | 322° |
| 2026-04-29 15:35 | 46.18895 | 6.94435 | 36074 ft | 414 kts | 322° |
| 2026-04-29 15:36 | 46.23588 | 6.89586 | 36078 ft | 414 kts | 322° |
| 2026-04-29 15:36 | 46.28276 | 6.84731 | 36089 ft | 415 kts | 322° |
| 2026-04-29 15:37 | 46.32937 | 6.79892 | 36088 ft | 415 kts | 321° |
| 2026-04-29 15:37 | 46.37624 | 6.75020 | 36089 ft | 415 kts | 322° |
| 2026-04-29 15:38 | 46.42284 | 6.70093 | 36086 ft | 413 kts | 317° |
| 2026-04-29 15:38 | 46.46012 | 6.63856 | 36083 ft | 409 kts | 300° |
| 2026-04-29 15:39 | 46.48832 | 6.56750 | 36081 ft | 409 kts | 299° |
| 2026-04-29 15:39 | 46.51663 | 6.49575 | 36083 ft | 410 kts | 299° |
| 2026-04-29 15:40 | 46.54492 | 6.42397 | 36088 ft | 410 kts | 299° |
| 2026-04-29 15:40 | 46.57320 | 6.35206 | 36087 ft | 410 kts | 299° |
| 2026-04-29 15:41 | 46.60121 | 6.28053 | 36088 ft | 410 kts | 299° |
| 2026-04-29 15:41 | 46.62933 | 6.20851 | 36086 ft | 410 kts | 299° |
| 2026-04-29 15:42 | 46.65750 | 6.13643 | 36080 ft | 410 kts | 299° |
| 2026-04-29 15:42 | 46.68560 | 6.06416 | 36076 ft | 410 kts | 298° |
| 2026-04-29 15:43 | 46.71359 | 5.99179 | 36075 ft | 410 kts | 298° |
| 2026-04-29 15:43 | 46.74137 | 5.91982 | 36064 ft | 410 kts | 298° |
| 2026-04-29 15:44 | 46.76939 | 5.84732 | 36062 ft | 411 kts | 298° |
| 2026-04-29 15:44 | 46.79739 | 5.77456 | 36058 ft | 411 kts | 298° |
| 2026-04-29 15:45 | 46.83057 | 5.70673 | 36048 ft | 413 kts | 313° |
| 2026-04-29 15:45 | 46.87257 | 5.64920 | 36040 ft | 414 kts | 314° |
| 2026-04-29 15:46 | 46.91428 | 5.59194 | 36032 ft | 414 kts | 314° |
| 2026-04-29 15:46 | 46.95629 | 5.53418 | 36025 ft | 415 kts | 314° |
| 2026-04-29 15:47 | 46.99829 | 5.47621 | 36024 ft | 415 kts | 314° |
| 2026-04-29 15:47 | 47.04028 | 5.41811 | 36024 ft | 415 kts | 314° |
| 2026-04-29 15:48 | 47.08210 | 5.36029 | 36028 ft | 416 kts | 314° |
| 2026-04-29 15:48 | 47.12420 | 5.30198 | 36029 ft | 416 kts | 314° |
| 2026-04-29 15:49 | 47.16629 | 5.24350 | 36053 ft | 416 kts | 314° |
| 2026-04-29 15:49 | 47.20828 | 5.18491 | 36051 ft | 417 kts | 314° |
| 2026-04-29 15:50 | 47.25030 | 5.12605 | 36051 ft | 417 kts | 314° |
| 2026-04-29 15:50 | 47.29170 | 5.06697 | 36053 ft | 417 kts | 313° |
| 2026-04-29 15:51 | 47.33180 | 5.00521 | 36054 ft | 417 kts | 311° |
| 2026-04-29 15:51 | 47.37149 | 4.94287 | 36052 ft | 417 kts | 311° |
| 2026-04-29 15:52 | 47.41146 | 4.88072 | 36052 ft | 418 kts | 311° |
| 2026-04-29 15:52 | 47.45134 | 4.81909 | 36054 ft | 418 kts | 312° |
| 2026-04-29 15:53 | 47.49165 | 4.75673 | 36054 ft | 418 kts | 312° |
| 2026-04-29 15:53 | 47.53158 | 4.69479 | 36056 ft | 419 kts | 312° |
| 2026-04-29 15:54 | 47.57164 | 4.63228 | 36060 ft | 419 kts | 312° |
| 2026-04-29 15:54 | 47.61179 | 4.56957 | 36054 ft | 419 kts | 311° |
| 2026-04-29 15:55 | 47.65187 | 4.50670 | 36056 ft | 420 kts | 311° |
| 2026-04-29 15:55 | 47.69202 | 4.44374 | 36052 ft | 420 kts | 311° |
| 2026-04-29 15:56 | 47.73188 | 4.38101 | 36053 ft | 420 kts | 311° |
| 2026-04-29 15:56 | 47.77202 | 4.31776 | 36052 ft | 421 kts | 311° |
| 2026-04-29 15:57 | 47.81221 | 4.25434 | 36053 ft | 421 kts | 311° |
| 2026-04-29 15:57 | 47.85240 | 4.19075 | 36056 ft | 422 kts | 311° |
| 2026-04-29 15:58 | 47.89247 | 4.12703 | 36056 ft | 422 kts | 311° |
| 2026-04-29 15:58 | 47.93231 | 4.06340 | 36059 ft | 422 kts | 311° |
| 2026-04-29 15:59 | 47.97240 | 3.99925 | 36062 ft | 423 kts | 311° |
| 2026-04-29 15:59 | 48.01255 | 3.93511 | 36068 ft | 423 kts | 312° |
| 2026-04-29 16:00 | 48.05275 | 3.87074 | 36072 ft | 424 kts | 311° |
| 2026-04-29 16:00 | 48.09263 | 3.80670 | 36075 ft | 424 kts | 311° |
| 2026-04-29 16:01 | 48.13273 | 3.74196 | 36076 ft | 424 kts | 311° |
| 2026-04-29 16:01 | 48.17718 | 3.68394 | 36078 ft | 427 kts | 327° |
| 2026-04-29 16:02 | 48.22799 | 3.63761 | 36080 ft | 427 kts | 327° |
| 2026-04-29 16:02 | 48.27837 | 3.59132 | 36081 ft | 427 kts | 327° |
| 2026-04-29 16:03 | 48.32910 | 3.54458 | 36086 ft | 427 kts | 327° |
| 2026-04-29 16:03 | 48.37972 | 3.49787 | 36087 ft | 427 kts | 327° |
| 2026-04-29 16:04 | 48.43033 | 3.45111 | 36082 ft | 426 kts | 327° |
| 2026-04-29 16:04 | 48.48053 | 3.40467 | 36093 ft | 426 kts | 327° |
| 2026-04-29 16:05 | 48.53090 | 3.35780 | 36104 ft | 425 kts | 327° |
| 2026-04-29 16:05 | 48.58119 | 3.31084 | 36110 ft | 425 kts | 327° |
| 2026-04-29 16:06 | 48.63146 | 3.26387 | 36102 ft | 424 kts | 327° |
| 2026-04-29 16:06 | 48.68165 | 3.21692 | 36099 ft | 424 kts | 327° |
| 2026-04-29 16:07 | 48.73186 | 3.16990 | 36101 ft | 425 kts | 327° |
| 2026-04-29 16:07 | 48.78175 | 3.12303 | 36102 ft | 425 kts | 327° |
| 2026-04-29 16:08 | 48.83187 | 3.07570 | 36106 ft | 425 kts | 327° |
| 2026-04-29 16:08 | 48.88205 | 3.02828 | 36107 ft | 425 kts | 327° |
| 2026-04-29 16:09 | 48.93226 | 2.98071 | 35798 ft | 425 kts | 327° |
| 2026-04-29 16:09 | 48.95740 | 2.95685 | 35545 ft | 426 kts | 326° |
| 2026-04-29 16:09 | 48.98254 | 2.93293 | 35295 ft | 426 kts | 326° |
| 2026-04-29 16:09 | 49.00772 | 2.90899 | 35048 ft | 427 kts | 326° |
| 2026-04-29 16:10 | 49.03254 | 2.88538 | 34805 ft | 427 kts | 326° |
| 2026-04-29 16:10 | 49.05779 | 2.86132 | 34565 ft | 428 kts | 326° |
| 2026-04-29 16:10 | 49.08309 | 2.83717 | 34328 ft | 429 kts | 326° |
| 2026-04-29 16:10 | 49.10836 | 2.81301 | 34086 ft | 429 kts | 326° |
| 2026-04-29 16:11 | 49.13366 | 2.78874 | 33463 ft | 431 kts | 327° |
| 2026-04-29 16:11 | 49.15915 | 2.76424 | 32531 ft | 433 kts | 327° |
| 2026-04-29 16:11 | 49.18472 | 2.73967 | 31597 ft | 436 kts | 328° |
| 2026-04-29 16:11 | 49.21033 | 2.71506 | 31002 ft | 431 kts | 328° |
| 2026-04-29 16:12 | 49.23555 | 2.69088 | 30423 ft | 427 kts | 328° |
| 2026-04-29 16:12 | 49.25220 | 2.67492 | 30014 ft | 424 kts | 329° |
| 2026-04-29 16:12 | 49.28505 | 2.64340 | 29209 ft | 418 kts | 328° |
| 2026-04-29 16:12 | 49.30950 | 2.61986 | 28652 ft | 413 kts | 328° |
| 2026-04-29 16:13 | 49.33371 | 2.59646 | 28095 ft | 409 kts | 328° |
| 2026-04-29 16:13 | 49.35763 | 2.57325 | 27544 ft | 405 kts | 328° |
| 2026-04-29 16:13 | 49.38138 | 2.55019 | 26993 ft | 402 kts | 328° |
| 2026-04-29 16:13 | 49.40490 | 2.52734 | 26448 ft | 399 kts | 329° |
| 2026-04-29 16:14 | 49.42833 | 2.50462 | 25912 ft | 397 kts | 328° |
| 2026-04-29 16:14 | 49.45208 | 2.48313 | 25376 ft | 394 kts | 337° |
| 2026-04-29 16:14 | 49.47794 | 2.47020 | 24870 ft | 390 kts | 351° |
| 2026-04-29 16:14 | 49.50450 | 2.46741 | 24372 ft | 386 kts | 6° |
| 2026-04-29 16:15 | 49.53085 | 2.47444 | 23767 ft | 385 kts | 20° |
| 2026-04-29 16:15 | 49.55521 | 2.49120 | 23070 ft | 383 kts | 34° |
| 2026-04-29 16:15 | 49.57679 | 2.51466 | 22770 ft | 374 kts | 37° |
| 2026-04-29 16:15 | 49.59810 | 2.53647 | 22677 ft | 361 kts | 34° |
| 2026-04-29 16:16 | 49.61934 | 2.55657 | 22594 ft | 358 kts | 33° |
| 2026-04-29 16:16 | 49.64072 | 2.57627 | 22521 ft | 358 kts | 33° |
| 2026-04-29 16:16 | 49.66209 | 2.59605 | 22437 ft | 358 kts | 33° |
| 2026-04-29 16:16 | 49.68329 | 2.61597 | 22358 ft | 357 kts | 33° |
| 2026-04-29 16:17 | 49.70411 | 2.63580 | 22278 ft | 356 kts | 34° |
| 2026-04-29 16:17 | 49.72510 | 2.65604 | 22205 ft | 355 kts | 34° |
| 2026-04-29 16:17 | 49.74601 | 2.67637 | 22122 ft | 355 kts | 34° |
| 2026-04-29 16:17 | 49.76685 | 2.69672 | 22044 ft | 354 kts | 34° |
| 2026-04-29 16:18 | 49.78766 | 2.71707 | 21965 ft | 353 kts | 34° |
| 2026-04-29 16:18 | 49.80844 | 2.73739 | 21882 ft | 353 kts | 33° |
| 2026-04-29 16:18 | 49.82919 | 2.75766 | 21805 ft | 353 kts | 34° |
| 2026-04-29 16:18 | 49.84992 | 2.77798 | 21726 ft | 352 kts | 34° |
| 2026-04-29 16:19 | 49.87059 | 2.79826 | 21648 ft | 352 kts | 33° |
| 2026-04-29 16:19 | 49.89125 | 2.81856 | 21567 ft | 352 kts | 34° |
| 2026-04-29 16:19 | 49.91186 | 2.83885 | 21481 ft | 351 kts | 33° |
| 2026-04-29 16:19 | 49.93220 | 2.85884 | 21417 ft | 351 kts | 33° |
| 2026-04-29 16:20 | 49.95279 | 2.87907 | 21334 ft | 351 kts | 33° |
| 2026-04-29 16:20 | 49.97362 | 2.89897 | 21043 ft | 353 kts | 29° |
| 2026-04-29 16:20 | 49.99698 | 2.91262 | 20100 ft | 367 kts | 13° |
| 2026-04-29 16:20 | 50.02292 | 2.91606 | 19138 ft | 382 kts | 358° |
| 2026-04-29 16:21 | 50.04960 | 2.90919 | 18249 ft | 394 kts | 349° |
| 2026-04-29 16:21 | 50.07619 | 2.90012 | 17818 ft | 388 kts | 349° |
| 2026-04-29 16:21 | 50.10241 | 2.89128 | 17307 ft | 384 kts | 350° |
| 2026-04-29 16:21 | 50.12849 | 2.88258 | 16760 ft | 382 kts | 350° |
| 2026-04-29 16:22 | 50.15404 | 2.87410 | 16287 ft | 379 kts | 349° |
| 2026-04-29 16:22 | 50.17941 | 2.86564 | 16156 ft | 366 kts | 350° |
| 2026-04-29 16:22 | 50.20387 | 2.85745 | 16029 ft | 354 kts | 349° |
| 2026-04-29 16:22 | 50.20569 | 2.85684 | 16019 ft | 354 kts | 350° |
| 2026-04-29 16:23 | 50.22567 | 2.85146 | 15926 ft | 343 kts | 352° |
| 2026-04-29 16:23 | 50.24876 | 2.84436 | 15802 ft | 333 kts | 350° |
| 2026-04-29 16:23 | 50.27102 | 2.83650 | 15653 ft | 324 kts | 349° |
| 2026-04-29 16:23 | 50.29287 | 2.82850 | 15237 ft | 322 kts | 349° |
| 2026-04-29 16:24 | 50.31447 | 2.82068 | 14476 ft | 323 kts | 349° |
| 2026-04-29 16:24 | 50.33645 | 2.81295 | 13708 ft | 324 kts | 349° |
| 2026-04-29 16:24 | 50.35847 | 2.80538 | 12895 ft | 324 kts | 350° |
| 2026-04-29 16:24 | 50.38042 | 2.79791 | 12185 ft | 321 kts | 350° |
| 2026-04-29 16:25 | 50.40038 | 2.79121 | 11531 ft | 318 kts | 352° |
| 2026-04-29 16:25 | 50.42197 | 2.78502 | 10865 ft | 315 kts | 352° |
| 2026-04-29 16:25 | 50.44311 | 2.77655 | 10167 ft | 315 kts | 337° |
| 2026-04-29 16:25 | 50.46065 | 2.75659 | 9487 ft | 313 kts | 312° |
| 2026-04-29 16:26 | 50.47132 | 2.72725 | 8805 ft | 310 kts | 286° |
| 2026-04-29 16:26 | 50.47583 | 2.69480 | 8153 ft | 306 kts | 282° |
| 2026-04-29 16:26 | 50.48015 | 2.66243 | 7627 ft | 300 kts | 282° |
| 2026-04-29 16:26 | 50.48434 | 2.63080 | 7129 ft | 292 kts | 282° |
| 2026-04-29 16:27 | 50.48838 | 2.59992 | 6643 ft | 285 kts | 282° |
| 2026-04-29 16:27 | 50.49398 | 2.57074 | 6132 ft | 276 kts | 299° |
| 2026-04-29 16:27 | 50.50532 | 2.54734 | 5622 ft | 265 kts | 323° |
| 2026-04-29 16:27 | 50.52076 | 2.53289 | 5105 ft | 254 kts | 345° |
| 2026-04-29 16:28 | 50.53774 | 2.52833 | 4594 ft | 243 kts | 6° |
| 2026-04-29 16:28 | 50.55414 | 2.53306 | 3946 ft | 239 kts | 27° |
| 2026-04-29 16:28 | 50.56756 | 2.54557 | 3771 ft | 218 kts | 44° |
| 2026-04-29 16:28 | 50.57751 | 2.56297 | 3622 ft | 212 kts | 60° |
| 2026-04-29 16:29 | 50.58355 | 2.58384 | 3507 ft | 209 kts | 76° |
| 2026-04-29 16:29 | 50.58533 | 2.60653 | 3380 ft | 210 kts | 91° |
| 2026-04-29 16:29 | 50.58273 | 2.62912 | 3247 ft | 212 kts | 108° |
| 2026-04-29 16:29 | 50.57586 | 2.64966 | 3122 ft | 213 kts | 123° |
| 2026-04-29 16:30 | 50.56610 | 2.66735 | 3021 ft | 215 kts | 128° |
| 2026-04-29 16:30 | 50.55628 | 2.68484 | 3013 ft | 208 kts | 127° |
| 2026-04-29 16:30 | 50.54706 | 2.70124 | 3001 ft | 196 kts | 127° |
| 2026-04-29 16:30 | 50.53818 | 2.71711 | 3009 ft | 190 kts | 125° |
| 2026-04-29 16:31 | 50.52934 | 2.73303 | 3017 ft | 196 kts | 126° |
| 2026-04-29 16:31 | 50.52145 | 2.75037 | 3015 ft | 194 kts | 109° |
| 2026-04-29 16:31 | 50.51865 | 2.77077 | 3017 ft | 191 kts | 86° |
| 2026-04-29 16:31 | 50.52088 | 2.79112 | 3009 ft | 189 kts | 77° |
| 2026-04-29 16:32 | 50.52388 | 2.81135 | 3008 ft | 190 kts | 77° |
| 2026-04-29 16:32 | 50.52680 | 2.83154 | 3011 ft | 189 kts | 77° |
| 2026-04-29 16:32 | 50.52969 | 2.85170 | 3011 ft | 190 kts | 77° |
| 2026-04-29 16:32 | 50.53256 | 2.87159 | 2893 ft | 191 kts | 76° |
| 2026-04-29 16:33 | 50.53807 | 2.90987 | 2386 ft | 171 kts | 76° |
| 2026-04-29 16:33 | 50.54066 | 2.92783 | 2138 ft | 165 kts | 75° |
| 2026-04-29 16:33 | 50.54315 | 2.94456 | 1953 ft | 147 kts | 74° |
| 2026-04-29 16:34 | 50.54554 | 2.95945 | 1849 ft | 135 kts | 73° |
| 2026-04-29 16:34 | 50.54742 | 2.97367 | 1704 ft | 131 kts | 76° |
| 2026-04-29 16:34 | 50.54902 | 2.98760 | 1571 ft | 130 kts | 73° |
| 2026-04-29 16:34 | 50.55102 | 3.00134 | 1442 ft | 128 kts | 75° |
| 2026-04-29 16:35 | 50.55326 | 3.01474 | 1267 ft | 129 kts | 73° |
| 2026-04-29 16:35 | 50.55549 | 3.02833 | 1066 ft | 129 kts | 76° |
| 2026-04-29 16:35 | 50.55701 | 3.04222 | 800 ft | 128 kts | 73° |
| 2026-04-29 16:35 | 50.55913 | 3.05589 | 568 ft | 128 kts | 75° |
| 2026-04-29 16:36 | 50.56104 | 3.06944 | 360 ft | 126 kts | 76° |
| 2026-04-29 16:36 | 50.56293 | 3.08298 | 198 ft | 126 kts | 75° |
| 2026-04-29 16:36 | 50.56461 | 3.09500 | 152 ft | 81 kts | 78° |
| 2026-04-29 16:36 | 50.56535 | 3.10035 | 152 ft | 39 kts | 78° |
| 2026-04-29 16:37 | 50.56593 | 3.10421 | 151 ft | 34 kts | 76° |
| 2026-04-29 16:37 | 50.56636 | 3.10746 | 149 ft | 18 kts | 81° |
| 2026-04-29 16:37 | 50.56676 | 3.10797 | 149 ft | 0 kts | 359° |
| 2026-04-29 16:38 | 50.56727 | 3.10792 | 150 ft | 6 kts | 349° |
| 2026-04-29 16:38 | 50.56762 | 3.10779 | 151 ft | 6 kts | 347° |
| 2026-04-29 16:38 | 50.56796 | 3.10767 | 151 ft | 4 kts | 347° |
| 2026-04-29 16:38 | 50.56817 | 3.10759 | 151 ft | 2 kts | 347° |
| 2026-04-29 16:39 | 50.56852 | 3.10747 | 151 ft | 9 kts | 347° |
| 2026-04-29 16:39 | 50.56911 | 3.10726 | 151 ft | 9 kts | 347° |
| 2026-04-29 16:39 | 50.56974 | 3.10707 | 151 ft | 10 kts | 349° |
| 2026-04-29 16:39 | 50.57024 | 3.10659 | 151 ft | 9 kts | 295° |
| 2026-04-29 16:40 | 50.57068 | 3.10622 | 151 ft | 7 kts | 356° |
| 2026-04-29 16:40 | 50.57108 | 3.10611 | 151 ft | 0 kts | 348° |